• Join FlightAware (Why Join?)
  • Login
  • US Flag 
06:10AM EDT


 

Airport Tracker/Info


-or-


 

Live Flight TrackerFlight Track Log ✈ SWA1181 ✈ 25-Aug-2013 ✈ KLAX - KAUS

Flight Track Log - Related Links

Times and Time Zones

All times are in EDT time to prevent confusion due to time zone crossing. See the SWA1181 flight status page for this flight to view local times or setup timezone preferences in your user account.

Time Position Orientation Groundspeed Altitude Reporting Facility
EDT Latitude Longitude Course Direction KTS MPH feet Rate Location/Type
04:34PM 33.9333 -118.4833 220° Southwest 217 250 2,200  Level Southern California TRACON
04:35PM 33.8761 -118.5411 220° Southwest 264 304 4,900 2,460 Climbing Los Angeles Center
04:36PM 33.8097 -118.5331 174° South 268 308 7,500 2,640 Climbing Los Angeles Center
04:37PM 33.7183 -118.5225 175° South 277 319 10,500 2,160 Climbing Los Angeles Center
04:38PM 33.6714 -118.4372 123° Southeast 330 380 12,000 1,680 Climbing Los Angeles Center
04:39PM 33.6447 -118.3303 107° East 342 394 14,000 1,620 Climbing Los Angeles Center
04:40PM 33.6378 -118.2119 94° East 360 414 15,400 1,740 Climbing Los Angeles Center
04:41PM 33.6214 -118.0583 97° East 386 444 17,700 1,740 Climbing Los Angeles Center
04:42PM 33.6108 -117.9547 97° East 390 449 19,100 1,500 Climbing Los Angeles Center
04:44PM 33.5942 -117.7964 97° East 398 458 20,900 1,500 Climbing Los Angeles Center
04:45PM 33.5797 -117.6608 97° East 409 471 22,200 1,260 Climbing Los Angeles Center
04:46PM 33.5633 -117.5197 98° East 427 491 23,600 1,320 Climbing Los Angeles Center
04:47PM 33.5367 -117.3522 101° East 433 498 25,000 1,080 Climbing Los Angeles Center
04:48PM 33.5081 -117.2103 104° East 437 503 25,900 960 Climbing Los Angeles Center
04:49PM 33.4800 -117.0625 103° East 445 512 27,100 960 Climbing Los Angeles Center
04:50PM 33.4522 -116.9153 103° East 451 519 28,000 960 Climbing Los Angeles Center
04:51PM 33.4297 -116.7669 100° East 451 519 29,200 960 Climbing Los Angeles Center
04:52PM 33.4139 -116.6169 97° East 453 521 30,100 960 Climbing Los Angeles Center
04:53PM 33.3997 -116.4667 96° East 452 520 31,200 960 Climbing Los Angeles Center
04:54PM 33.3786 -116.2875 98° East 451 519 32,200 780 Climbing Los Angeles Center
04:55PM 33.3775 -116.1353 90° East 459 528 32,900 420 Climbing Los Angeles Center
04:56PM 33.3919 -115.9817 84° East 462 532 33,100 60 Climbing Los Angeles Center
04:57PM 33.3978 -115.8275 87° East 463 533 33,100  Level Los Angeles Center
04:58PM 33.3783 -115.6792 99° East 451 519 33,100 -60 Level Los Angeles Center
04:59PM 33.3589 -115.5306 99° East 451 519 33,000  Descending Los Angeles Center
05:00PM 33.3350 -115.3503 99° East 456 525 33,100  Climbing Los Angeles Center
05:01PM 33.3142 -115.1978 99° East 463 533 33,100  Level Los Angeles Center
05:02PM 33.2942 -115.0475 99° East 461 531 33,100  Level Los Angeles Center
05:03PM 33.2750 -114.8969 99° East 460 529 33,100  Level Los Angeles Center
05:04PM 33.2547 -114.7450 99° East 462 532 33,100 -60 Level Los Angeles Center
05:05PM 33.2342 -114.5939 99° East 461 531 33,000  Descending Los Angeles Center
05:06PM 33.2094 -114.4119 99° East 464 534 33,100  Climbing Los Angeles Center
05:07PM 33.1886 -114.2600 99° East 464 534 33,100  Level Los Angeles Center
05:08PM 33.1669 -114.1078 100° East 465 535 33,100  Level Los Angeles Center
05:09PM 33.1461 -113.9561 99° East 465 535 33,100  Level Los Angeles Center
05:11PM 33.1208 -113.7742 99° East 464 534 33,100  Level Los Angeles Center
05:12PM 33.0994 -113.6200 99° East 470 541 33,100  Level Los Angeles Center
05:12PM 33.0842 -113.5022 99° East 469 540 33,100  Level Albuquerque Center
05:13PM 33.0622 -113.3483 100° East 469 540 33,100  Level Albuquerque Center
05:14PM 33.0394 -113.1944 100° East 470 541 33,100  Level Albuquerque Center
05:16PM 33.0122 -113.0092 100° East 471 542 33,100  Level Albuquerque Center
05:17PM 32.9894 -112.8553 100° East 470 541 33,100  Level Albuquerque Center
05:18PM 32.9661 -112.6994 100° East 472 543 33,100 -60 Level Albuquerque Center
05:19PM 32.9411 -112.5461 101° East 472 543 33,000  Descending Albuquerque Center
05:20PM 32.9181 -112.3939 100° East 467 537 33,100  Climbing Albuquerque Center
05:21PM 32.8961 -112.2492 100° East 462 532 33,100  Level Albuquerque Center
05:22PM 32.8686 -112.0725 100° East 458 527 33,100  Level Albuquerque Center
05:23PM 32.8456 -111.9228 100° East 459 528 33,100  Level Albuquerque Center
05:24PM 32.8222 -111.7714 100° East 466 536 33,100  Level Albuquerque Center
05:25PM 32.7981 -111.6222 101° East 463 533 33,100  Level Albuquerque Center
05:26PM 32.7733 -111.4739 101° East 462 532 33,100  Level Albuquerque Center
05:27PM 32.7494 -111.3247 101° East 462 532 33,100  Level Albuquerque Center
05:28PM 32.7250 -111.1769 101° East 460 529 33,100  Level Albuquerque Center
05:29PM 32.6958 -110.9992 101° East 460 529 33,100  Level Albuquerque Center
05:30PM 32.6714 -110.8486 101° East 463 533 33,100  Level Albuquerque Center
05:31PM 32.6456 -110.7003 102° East 463 533 33,100  Level Albuquerque Center
05:32PM 32.6211 -110.5500 101° East 465 535 33,100  Level Albuquerque Center
05:33PM 32.5939 -110.4019 102° East 462 532 33,100  Level Albuquerque Center
05:34PM 32.5675 -110.2450 101° East 465 535 33,100  Level Albuquerque Center
05:35PM 32.5417 -110.0939 101° East 469 540 33,100  Level Albuquerque Center
05:36PM 32.5150 -109.9447 102° East 466 536 33,100  Level Albuquerque Center
05:37PM 32.4831 -109.7647 102° East 468 539 33,100  Level Albuquerque Center
05:38PM 32.4547 -109.6133 102° East 473 544 33,100  Level Albuquerque Center
05:39PM 32.4278 -109.4622 102° East 473 544 33,100  Level Albuquerque Center
05:40PM 32.4017 -109.3142 102° East 467 537 33,100  Level Albuquerque Center
05:41PM 32.3747 -109.1667 102° East 463 533 33,100  Level Albuquerque Center
05:42PM 32.3478 -109.0197 102° East 462 532 33,100  Level Albuquerque Center
05:43PM 32.3158 -108.8436 102° East 460 529 33,100  Level Albuquerque Center
05:44PM 32.2886 -108.6978 102° East 459 528 33,100  Level Albuquerque Center
05:45PM 32.2625 -108.5522 102° East 458 527 33,100  Level Albuquerque Center
05:46PM 32.2358 -108.4133 103° East 458 527 33,100  Level Albuquerque Center
05:47PM 32.2083 -108.2692 103° East 454 522 33,100  Level Albuquerque Center
05:48PM 32.1758 -108.0961 102° East 453 521 33,100  Level Albuquerque Center
05:49PM 32.1481 -107.9508 103° East 455 524 33,100  Level Albuquerque Center
05:50PM 32.1206 -107.8078 103° East 453 521 33,100  Level Albuquerque Center
05:51PM 32.0931 -107.6644 103° East 452 520 33,100  Level Albuquerque Center
05:53PM 32.0653 -107.5211 103° East 453 521 33,100  Level Albuquerque Center
05:54PM 32.0378 -107.3786 103° East 450 518 33,100  Level Albuquerque Center
05:55PM 32.0047 -107.2067 103° East 452 520 33,100  Level Albuquerque Center
05:56PM 31.9761 -107.0661 103° East 448 516 33,100  Level Albuquerque Center
05:57PM 31.9486 -106.9244 103° East 448 516 33,100  Level Albuquerque Center
05:58PM 31.9197 -106.7853 104° East 443 510 33,100  Level Albuquerque Center
05:59PM 31.8908 -106.6444 104° East 444 511 33,100  Level Albuquerque Center
06:00PM 31.8578 -106.4819 103° East 447 514 33,100  Level Albuquerque Center
06:01PM 31.8297 -106.3389 103° East 450 518 33,100  Level Albuquerque Center
06:02PM 31.8064 -106.1958 101° East 448 516 33,100  Level Albuquerque Center
06:03PM 31.7886 -106.0542 98° East 440 506 33,100  Level Albuquerque Center
06:04PM 31.7714 -105.9114 98° East 442 509 33,100  Level Albuquerque Center
06:05PM 31.7542 -105.7686 98° East 441 507 33,100  Level Albuquerque Center
06:06PM 31.7369 -105.6272 98° East 438 504 33,100  Level Albuquerque Center
06:07PM 31.7192 -105.4858 98° East 437 503 33,100  Level Albuquerque Center
06:08PM 31.6981 -105.3147 98° East 439 505 33,100  Level Albuquerque Center
06:09PM 31.6808 -105.1733 98° East 437 503 33,100  Level Albuquerque Center
06:10PM 31.6628 -105.0314 98° East 439 505 33,100 -60 Level Albuquerque Center
06:11PM 31.6444 -104.8889 99° East 439 505 33,000  Descending Albuquerque Center
06:12PM 31.6267 -104.7472 98° East 438 504 33,100  Climbing Albuquerque Center
06:13PM 31.6092 -104.6050 98° East 439 505 33,100  Level Albuquerque Center
06:14PM 31.5911 -104.4636 98° East 438 504 33,100  Level Albuquerque Center
06:15PM 31.5719 -104.3217 99° East 439 505 33,100  Level Albuquerque Center
06:16PM 31.5531 -104.1778 99° East 443 510 33,100  Level Albuquerque Center
06:17PM 31.5300 -104.0050 99° East 446 513 33,100  Level Albuquerque Center
06:18PM 31.5108 -103.8625 99° East 444 511 33,100  Level Albuquerque Center
06:19PM 31.4914 -103.7283 100° East 444 511 33,100  Level Albuquerque Center
06:20PM 31.4725 -103.5850 99° East 444 511 33,100  Level Albuquerque Center
06:21PM 31.4525 -103.4431 99° East 443 510 33,100  Level Albuquerque Center
06:22PM 31.4300 -103.2733 99° East 441 507 33,100  Level Albuquerque Center
06:23PM 31.4133 -103.1314 98° East 442 509 33,100  Level Albuquerque Center
06:24PM 31.3953 -102.9897 98° East 441 507 33,100  Level Albuquerque Center
06:25PM 31.3769 -102.8486 99° East 441 507 33,100  Level Albuquerque Center
06:26PM 31.3603 -102.7078 98° East 439 505 33,100  Level Albuquerque Center
06:27PM 31.3422 -102.5686 99° East 436 502 33,100  Level Albuquerque Center
06:28PM 31.3242 -102.4283 99° East 444 511 33,100  Level Albuquerque Center
06:29PM 31.3025 -102.2628 99° East 436 502 33,100  Level Albuquerque Center
06:30PM 31.2833 -102.1231 99° East 436 502 33,100  Level Albuquerque Center
06:31PM 31.2719 -102.0186 97° East 438 504 33,100  Level Houston Center
06:32PM 31.2525 -101.8800 99° East 434 499 33,100 -60 Level Houston Center
06:33PM 31.2336 -101.7414 99° East 433 498 33,000  Descending Houston Center
06:34PM 31.2139 -101.6017 99° East 435 501 33,100  Climbing Houston Center
06:35PM 31.1956 -101.4625 99° East 434 499 33,100  Level Houston Center
06:36PM 31.1742 -101.3147 100° East 434 499 33,100  Level Houston Center
06:37PM 31.1542 -101.1761 100° East 434 499 33,100  Level Houston Center
06:38PM 31.1353 -101.0367 99° East 435 501 33,100  Level Houston Center
06:39PM 31.1150 -100.8978 100° East 436 502 33,100  Level Houston Center
06:40PM 31.0922 -100.7303 99° East 435 501 33,100  Level Houston Center
06:41PM 31.0725 -100.5903 99° East 436 502 33,100  Level Houston Center
06:43PM 31.0511 -100.4508 100° East 436 502 33,100  Level Houston Center
06:44PM 31.0311 -100.3103 99° East 437 503 33,100  Level Houston Center
06:45PM 31.0094 -100.1686 100° East 442 509 33,100  Level Houston Center
06:46PM 30.9889 -100.0281 100° East 441 507 33,100  Level Houston Center
06:47PM 30.9683 -99.8867 100° East 441 507 33,100  Level Houston Center
06:48PM 30.9469 -99.7450 100° East 443 510 33,100  Level Houston Center
06:49PM 30.9253 -99.6025 100° East 446 513 33,100  Level Houston Center
06:50PM 30.8986 -99.4300 100° East 449 517 33,100 -780 Level Houston Center
06:51PM 30.8758 -99.2850 100° East 454 522 31,600 -2,100 Descending Houston Center
06:52PM 30.8522 -99.1331 100° East 451 519 28,900 -2,520 Descending Houston Center
06:53PM 30.8294 -98.9956 101° East 432 497 26,500 -2,280 Descending Houston Center
06:54PM 30.8092 -98.8664 100° East 408 470 24,300 -2,160 Descending Houston Center
06:55PM 30.7911 -98.7422 100° East 390 449 22,100 -2,100 Descending Houston Center
06:56PM 30.7797 -98.6225 96° East 375 432 20,000 -2,040 Descending Houston Center
06:57PM 30.7667 -98.5086 98° East 355 409 18,000 -1,980 Descending Houston Center
06:58PM 30.7558 -98.3983 96° East 344 396 16,000 -1,980 Descending Houston Center
06:59PM 30.7444 -98.2914 97° East 334 384 14,000 -2,160 Descending Houston Center
07:00PM 30.7311 -98.1678 97° East 329 379 11,600 -1,920 Descending Houston Center
07:01PM 30.7147 -98.0678 101° East 318 366 10,100 -1,080 Descending Houston Center
07:02PM 30.6650 -97.9878 126° Southeast 303 349 9,500 -1,020 Descending Houston Center
07:03PM 30.6197 -97.9158 126° Southeast 285 328 8,100 -1,500 Descending Houston Center
07:04PM 30.5669 -97.8589 137° Southeast 267 307 6,500 -1,620 Descending Houston Center
07:05PM 30.5025 -97.8136 149° Southeast 266 306 4,800 -1,560 Descending Houston Center
07:06PM 30.4372 -97.7722 151° Southeast 267 307 3,400 -960 Descending Houston Center
07:07PM 30.3792 -97.7353 151° Southeast 255 293 2,900 -660 Descending Houston Center
07:08PM 30.3272 -97.7033 152° Southeast 230 265 2,100 -540 Descending Houston Center
07:09PM 30.2797 -97.6806 158° South 182 209 1,800 -540 Descending Houston Center
07:10PM 30.2372 -97.6808 180° South 158 182 1,100 -720 Descending Houston Center
07:12PM 30.1945 -97.6699 221° Southwest  Level Estimated
07:19PM 30.1945 -97.6699 221° Southwest  Level Estimated
07:20PM 30.1945 -97.6699 221° Southwest  Level Estimated